Time;durP1;ratioP1;P1;durP2;ratioP2;P2;SDS_P1;SDS_P2;PMS_P1;PMS_P2;Temp;Humidity;BMP_temperature;BMP_pressure;BME280_temperature;BME280_humidity;BME280_pressure;Samples;Min_cycle;Max_cycle;Signal;HPM_P1;HPM_P2
2021/09/16 00:00:17;;;;;;;8.03;4.93;;;;;;;;;;5071794;28;20028;-81
2021/09/16 00:02:43;;;;;;;7.03;4.80;;;;;;;;;;5071877;28;20067;-83
2021/09/16 00:05:10;;;;;;;8.97;5.17;;;;;;;;;;5071978;28;20415;-85
2021/09/16 00:07:36;;;;;;;6.97;4.90;;;;;;;;;;5062567;28;20052;-83
2021/09/16 00:10:02;;;;;;;5.70;4.37;;;;;;;;;;5059912;28;20029;-84
2021/09/16 00:12:27;;;;;;;7.00;4.68;;;;;;;;;;5063238;28;20060;-84
2021/09/16 00:14:53;;;;;;;8.03;4.47;;;;;;;;;;5066898;28;20390;-82
2021/09/16 00:17:18;;;;;;;7.87;4.20;;;;;;;;;;5061172;28;20039;-83
2021/09/16 00:19:46;;;;;;;7.90;4.60;;;;;;;;;;5058588;28;20029;-83
2021/09/16 00:22:11;;;;;;;8.70;5.55;;;;;;;;;;5057786;28;20032;-82
2021/09/16 00:24:37;;;;;;;11.03;6.07;;;;;;;;;;5058884;28;20186;-84
2021/09/16 00:27:02;;;;;;;8.10;5.23;;;;;;;;;;5062334;28;20036;-83
2021/09/16 00:29:28;;;;;;;12.00;5.87;;;;;;;;;;5066056;28;20029;-84
2021/09/16 00:31:53;;;;;;;5.80;4.47;;;;;;;;;;5066155;28;20082;-83
2021/09/16 00:34:19;;;;;;;5.73;3.50;;;;;;;;;;5065865;28;20089;-83
2021/09/16 00:36:44;;;;;;;6.13;3.37;;;;;;;;;;5068349;28;20070;-81
2021/09/16 00:39:09;;;;;;;5.30;3.03;;;;;;;;;;5070300;28;20024;-84
2021/09/16 00:41:34;;;;;;;5.57;2.87;;;;;;;;;;5070025;28;20017;-82
2021/09/16 00:44:00;;;;;;;4.67;2.80;;;;;;;;;;5069737;28;20045;-81
2021/09/16 00:46:26;;;;;;;5.03;3.03;;;;;;;;;;5064946;28;20056;-85
2021/09/16 00:48:51;;;;;;;6.07;2.33;;;;;;;;;;5066847;28;20040;-83
2021/09/16 00:51:17;;;;;;;6.00;2.70;;;;;;;;;;5067501;28;20017;-83
2021/09/16 00:53:43;;;;;;;8.27;2.80;;;;;;;;;;5068817;28;20036;-83
2021/09/16 00:56:11;;;;;;;4.97;2.80;;;;;;;;;;5072542;28;20025;-80
2021/09/16 00:58:39;;;;;;;3.47;2.63;;;;;;;;;;5074352;28;20056;-82
2021/09/16 01:01:05;;;;;;;5.65;2.75;;;;;;;;;;5067890;28;20406;-83
2021/09/16 01:03:31;;;;;;;3.65;2.50;;;;;;;;;;5065817;28;20075;-85
2021/09/16 01:05:56;;;;;;;4.30;2.93;;;;;;;;;;5063367;28;20029;-85
2021/09/16 01:08:21;;;;;;;11.03;3.10;;;;;;;;;;5062647;28;20462;-84
2021/09/16 01:10:48;;;;;;;4.17;3.33;;;;;;;;;;5061576;28;20037;-84
2021/09/16 01:13:15;;;;;;;5.60;3.00;;;;;;;;;;5062764;28;20052;-85
2021/09/16 01:15:40;;;;;;;;;;;;;;;;;;5062778;28;20029;-83
2021/09/16 01:18:06;;;;;;;9.73;3.67;;;;;;;;;;5061930;28;20418;-82
2021/09/16 01:20:31;;;;;;;5.30;2.90;;;;;;;;;;5062974;28;20259;-82
2021/09/16 01:22:56;;;;;;;5.00;3.13;;;;;;;;;;5060631;28;20025;-82
2021/09/16 01:25:29;;;;;;;7.70;3.93;;;;;;;;;;5063132;28;20108;-84
2021/09/16 01:27:57;;;;;;;6.88;5.40;;;;;;;;;;5063660;28;20124;-82
2021/09/16 01:30:23;;;;;;;8.70;5.05;;;;;;;;;;5064355;28;20084;-85
2021/09/16 01:32:49;;;;;;;7.57;5.40;;;;;;;;;;5063889;28;20036;-84
2021/09/16 01:35:15;;;;;;;8.98;6.10;;;;;;;;;;5063812;28;20382;-82
2021/09/16 01:37:40;;;;;;;9.63;5.27;;;;;;;;;;5061481;28;20063;-84
2021/09/16 01:40:07;;;;;;;8.00;5.53;;;;;;;;;;5061264;28;20355;-82
2021/09/16 01:42:32;;;;;;;8.65;6.15;;;;;;;;;;5064009;28;20045;-84
2021/09/16 01:44:58;;;;;;;10.90;7.07;;;;;;;;;;5063731;28;20390;-83
2021/09/16 01:47:23;;;;;;;10.93;7.03;;;;;;;;;;5064832;28;20029;-82
2021/09/16 01:49:48;;;;;;;11.90;7.60;;;;;;;;;;5064880;28;20040;-83
2021/09/16 01:52:16;;;;;;;12.77;7.37;;;;;;;;;;5064603;28;20032;-83
2021/09/16 01:54:41;;;;;;;14.65;7.13;;;;;;;;;;5065793;28;20029;-81
2021/09/16 01:57:07;;;;;;;11.87;7.30;;;;;;;;;;5064925;28;20097;-81
2021/09/16 01:59:32;;;;;;;10.87;8.27;;;;;;;;;;5066526;28;20029;-81
2021/09/16 02:01:57;;;;;;;14.47;8.20;;;;;;;;;;5066472;28;20024;-82
2021/09/16 02:04:23;;;;;;;14.13;8.13;;;;;;;;;;5064099;28;20120;-82
2021/09/16 02:06:48;;;;;;;12.17;7.40;;;;;;;;;;5064304;28;20052;-80
2021/09/16 02:09:13;;;;;;;15.33;7.97;;;;;;;;;;5063296;28;20439;-82
2021/09/16 02:11:39;;;;;;;10.90;7.50;;;;;;;;;;5063019;28;20013;-81
2021/09/16 02:14:04;;;;;;;16.00;9.63;;;;;;;;;;5063680;28;20025;-83
2021/09/16 02:16:29;;;;;;;14.33;9.27;;;;;;;;;;5061944;28;20031;-84
2021/09/16 02:18:55;;;;;;;14.70;9.33;;;;;;;;;;5064059;28;20443;-80
2021/09/16 02:21:20;;;;;;;18.83;10.50;;;;;;;;;;5063836;28;20059;-80
2021/09/16 02:23:46;;;;;;;18.83;10.43;;;;;;;;;;5072652;28;20055;-80
2021/09/16 02:26:11;;;;;;;16.50;8.30;;;;;;;;;;5067146;28;20370;-82
2021/09/16 02:28:36;;;;;;;13.53;8.50;;;;;;;;;;5061325;28;20438;-82
2021/09/16 02:31:02;;;;;;;17.80;8.47;;;;;;;;;;5058771;28;20028;-82
2021/09/16 02:33:28;;;;;;;7.37;5.47;;;;;;;;;;5059269;28;20102;-80
2021/09/16 02:35:53;;;;;;;7.50;4.90;;;;;;;;;;5059615;28;20051;-82
2021/09/16 02:38:20;;;;;;;7.27;4.33;;;;;;;;;;5059945;28;20029;-82
2021/09/16 02:40:46;;;;;;;8.68;5.78;;;;;;;;;;5057797;28;20090;-82
2021/09/16 02:43:11;;;;;;;7.63;4.53;;;;;;;;;;5057251;28;20059;-84
2021/09/16 02:45:36;;;;;;;7.93;4.93;;;;;;;;;;5058295;28;20337;-81
2021/09/16 02:48:02;;;;;;;8.77;5.87;;;;;;;;;;5059315;28;20051;-83
2021/09/16 02:50:27;;;;;;;9.17;5.83;;;;;;;;;;5059719;28;20359;-83
2021/09/16 02:52:52;;;;;;;8.80;5.07;;;;;;;;;;5060016;28;20025;-81
2021/09/16 02:55:19;;;;;;;10.97;6.73;;;;;;;;;;5060669;28;20028;-81
2021/09/16 02:57:45;;;;;;;9.70;6.55;;;;;;;;;;5060893;28;20025;-79
2021/09/16 03:00:11;;;;;;;15.10;8.05;;;;;;;;;;5059080;28;20021;-81
2021/09/16 03:02:36;;;;;;;10.50;7.00;;;;;;;;;;5056011;28;20527;-82
2021/09/16 03:05:02;;;;;;;14.30;8.20;;;;;;;;;;5056339;28;20116;-82
2021/09/16 03:07:27;;;;;;;13.33;7.73;;;;;;;;;;5056115;28;20108;-82
2021/09/16 03:09:52;;;;;;;16.60;8.73;;;;;;;;;;5055005;28;20085;-82
2021/09/16 03:12:18;;;;;;;11.60;8.07;;;;;;;;;;5055187;28;20051;-82
2021/09/16 03:14:43;;;;;;;13.33;8.63;;;;;;;;;;5055405;28;20021;-83
2021/09/16 03:17:08;;;;;;;12.23;8.83;;;;;;;;;;5057287;28;20025;-83
2021/09/16 03:19:34;;;;;;;15.20;9.07;;;;;;;;;;5055950;28;20451;-82
2021/09/16 03:21:59;;;;;;;14.20;10.33;;;;;;;;;;5056779;28;20031;-85
2021/09/16 03:24:25;;;;;;;13.83;9.43;;;;;;;;;;5056164;28;20435;-84
2021/09/16 03:26:50;;;;;;;17.10;8.70;;;;;;;;;;5056936;28;20025;-84
2021/09/16 03:29:15;;;;;;;14.20;9.03;;;;;;;;;;5057641;28;20028;-85
2021/09/16 03:31:41;;;;;;;18.37;11.07;;;;;;;;;;5057463;28;20380;-82
2021/09/16 03:34:06;;;;;;;18.47;10.57;;;;;;;;;;5057068;28;20419;-84
2021/09/16 03:36:31;;;;;;;16.23;9.97;;;;;;;;;;5056751;28;20029;-83
2021/09/16 03:38:57;;;;;;;15.20;10.33;;;;;;;;;;5059413;28;20264;-84
2021/09/16 03:41:22;;;;;;;17.67;10.47;;;;;;;;;;5062153;28;20082;-82
2021/09/16 03:43:47;;;;;;;18.40;12.47;;;;;;;;;;5066284;28;20086;-83
2021/09/16 03:46:13;;;;;;;17.10;11.07;;;;;;;;;;5065455;28;20029;-82
2021/09/16 03:48:38;;;;;;;16.43;10.93;;;;;;;;;;5064847;28;20375;-82
2021/09/16 03:51:03;;;;;;;17.47;11.10;;;;;;;;;;5065370;28;20025;-82
2021/09/16 03:53:29;;;;;;;26.50;13.40;;;;;;;;;;5067312;28;20040;-81
2021/09/16 03:55:54;;;;;;;20.00;13.23;;;;;;;;;;5066779;28;20029;-84
2021/09/16 03:58:20;;;;;;;20.85;13.13;;;;;;;;;;5064169;28;20077;-85
2021/09/16 04:00:46;;;;;;;18.77;12.33;;;;;;;;;;5063709;28;20025;-82
2021/09/16 04:03:11;;;;;;;20.67;13.10;;;;;;;;;;5067844;28;20100;-85
2021/09/16 04:05:39;;;;;;;20.40;13.43;;;;;;;;;;5060742;28;20025;-85
2021/09/16 04:08:04;;;;;;;22.55;13.50;;;;;;;;;;5060465;28;20029;-84
2021/09/16 04:10:30;;;;;;;19.97;12.73;;;;;;;;;;5061158;28;20037;-83
2021/09/16 04:12:56;;;;;;;19.57;12.47;;;;;;;;;;5060668;28;20122;-82
2021/09/16 04:15:21;;;;;;;17.67;11.20;;;;;;;;;;5060663;28;20028;-84
2021/09/16 04:17:47;;;;;;;18.13;12.03;;;;;;;;;;5059872;28;20090;-86
2021/09/16 04:20:12;;;;;;;20.60;12.40;;;;;;;;;;5061533;28;20438;-82
2021/09/16 04:22:38;;;;;;;14.53;10.07;;;;;;;;;;5063602;28;20033;-85
2021/09/16 04:25:04;;;;;;;19.43;11.30;;;;;;;;;;5060845;28;20021;-85
2021/09/16 04:27:29;;;;;;;22.53;12.87;;;;;;;;;;5061850;28;20040;-85
2021/09/16 04:29:54;;;;;;;19.83;13.47;;;;;;;;;;5063428;28;20033;-82
2021/09/16 04:32:20;;;;;;;17.20;10.87;;;;;;;;;;5067948;28;20021;-82
2021/09/16 04:34:45;;;;;;;14.73;10.20;;;;;;;;;;5071123;28;20047;-82
2021/09/16 04:37:10;;;;;;;13.73;11.27;;;;;;;;;;5070117;28;20044;-81
2021/09/16 04:39:36;;;;;;;15.80;10.33;;;;;;;;;;5060445;28;20063;-82
2021/09/16 04:42:01;;;;;;;16.07;9.93;;;;;;;;;;5063489;28;20028;-81
2021/09/16 04:44:27;;;;;;;15.00;10.20;;;;;;;;;;5070306;28;20068;-81
2021/09/16 04:46:52;;;;;;;11.90;9.40;;;;;;;;;;5067884;28;20036;-82
2021/09/16 04:49:17;;;;;;;14.33;9.97;;;;;;;;;;5059303;28;20071;-84
2021/09/16 04:51:44;;;;;;;12.30;8.73;;;;;;;;;;5058594;28;20035;-83
2021/09/16 04:54:09;;;;;;;12.10;8.07;;;;;;;;;;5059701;28;20051;-82
2021/09/16 04:56:35;;;;;;;11.13;7.83;;;;;;;;;;5043041;28;20459;-83
2021/09/16 04:59:00;;;;;;;12.00;8.67;;;;;;;;;;5060537;28;20032;-83
2021/09/16 05:01:25;;;;;;;16.07;8.73;;;;;;;;;;5059282;28;20116;-84
2021/09/16 05:03:51;;;;;;;12.63;8.53;;;;;;;;;;5058177;28;20028;-82
2021/09/16 05:06:16;;;;;;;13.57;7.97;;;;;;;;;;5059078;28;20419;-82
2021/09/16 05:08:42;;;;;;;13.17;8.27;;;;;;;;;;5058757;28;20097;-84
2021/09/16 05:11:09;;;;;;;12.55;8.60;;;;;;;;;;5057917;28;20492;-84
2021/09/16 05:13:34;;;;;;;13.63;8.73;;;;;;;;;;5056780;28;20064;-82
2021/09/16 05:15:59;;;;;;;16.07;10.00;;;;;;;;;;5058394;28;20079;-84
2021/09/16 05:18:25;;;;;;;11.17;9.33;;;;;;;;;;5058360;28;20033;-83
2021/09/16 05:20:50;;;;;;;14.93;9.23;;;;;;;;;;5059868;28;20036;-81
2021/09/16 05:23:15;;;;;;;13.57;9.17;;;;;;;;;;5058993;28;20450;-84
2021/09/16 05:25:41;;;;;;;16.43;10.10;;;;;;;;;;5058916;28;20024;-82
2021/09/16 05:28:06;;;;;;;13.13;9.50;;;;;;;;;;5058691;28;20470;-83
2021/09/16 05:30:31;;;;;;;12.47;8.40;;;;;;;;;;5065126;28;20025;-81
2021/09/16 05:32:56;;;;;;;13.67;9.63;;;;;;;;;;5058348;28;20387;-81
2021/09/16 05:35:22;;;;;;;12.33;8.70;;;;;;;;;;5059718;28;20028;-82
2021/09/16 05:37:47;;;;;;;19.13;10.50;;;;;;;;;;5057494;28;20029;-82
2021/09/16 05:40:14;;;;;;;16.10;9.97;;;;;;;;;;5057506;28;20021;-82
2021/09/16 05:42:39;;;;;;;;;;;;;;;;;;5058661;28;20021;-85
2021/09/16 05:45:07;;;;;;;18.40;11.70;;;;;;;;;;5058069;28;20240;-82
2021/09/16 05:47:32;;;;;;;19.33;11.65;;;;;;;;;;5057319;28;20451;-84
2021/09/16 05:49:58;;;;;;;15.93;12.33;;;;;;;;;;5057837;28;20029;-83
2021/09/16 05:52:23;;;;;;;18.87;12.53;;;;;;;;;;5056895;28;20035;-82
2021/09/16 05:54:48;;;;;;;19.80;11.30;;;;;;;;;;5056958;28;20044;-83
2021/09/16 05:57:14;;;;;;;11.93;9.83;;;;;;;;;;5057540;28;20029;-81
2021/09/16 05:59:39;;;;;;;15.67;10.83;;;;;;;;;;5057321;28;20036;-82
2021/09/16 06:02:04;;;;;;;15.30;9.60;;;;;;;;;;5056807;28;20336;-83
2021/09/16 06:04:30;;;;;;;13.00;8.80;;;;;;;;;;5057662;28;20045;-82
2021/09/16 06:06:56;;;;;;;17.30;9.80;;;;;;;;;;5056245;28;20123;-84
2021/09/16 06:09:21;;;;;;;12.83;9.40;;;;;;;;;;5057313;28;20086;-81
2021/09/16 06:11:47;;;;;;;13.13;9.07;;;;;;;;;;5060930;28;20367;-83
2021/09/16 06:14:12;;;;;;;13.53;8.37;;;;;;;;;;5059322;28;20029;-82
2021/09/16 06:16:37;;;;;;;14.43;9.00;;;;;;;;;;5059350;28;20051;-82
2021/09/16 06:19:03;;;;;;;12.27;8.70;;;;;;;;;;5059595;28;20119;-82
2021/09/16 06:21:28;;;;;;;11.03;7.90;;;;;;;;;;5061945;28;20040;-83
2021/09/16 06:23:53;;;;;;;12.40;7.87;;;;;;;;;;5062265;28;20094;-82
2021/09/16 06:26:20;;;;;;;10.57;7.13;;;;;;;;;;5058751;28;20087;-81
2021/09/16 06:28:45;;;;;;;;;;;;;;;;;;5059126;28;20066;-84
2021/09/16 06:31:13;;;;;;;12.73;7.33;;;;;;;;;;5056442;28;19916;-84
2021/09/16 06:33:38;;;;;;;9.60;6.95;;;;;;;;;;5056077;28;20025;-82
2021/09/16 06:36:05;;;;;;;14.03;7.20;;;;;;;;;;5055690;28;20089;-80
2021/09/16 06:38:30;;;;;;;10.55;7.13;;;;;;;;;;5056929;28;20101;-82
2021/09/16 06:40:56;;;;;;;9.50;6.87;;;;;;;;;;5057178;28;20048;-83
2021/09/16 06:43:21;;;;;;;12.97;7.23;;;;;;;;;;5057613;28;20025;-81
2021/09/16 06:45:46;;;;;;;10.67;7.20;;;;;;;;;;5060947;28;20025;-82
2021/09/16 06:48:12;;;;;;;12.33;6.53;;;;;;;;;;5058775;28;20067;-82
2021/09/16 06:50:37;;;;;;;9.73;6.97;;;;;;;;;;5056036;28;20039;-82
2021/09/16 06:53:02;;;;;;;11.57;6.93;;;;;;;;;;5057318;28;20095;-83
2021/09/16 06:55:28;;;;;;;9.70;7.13;;;;;;;;;;5057066;28;20036;-81
2021/09/16 06:58:01;;;;;;;11.50;6.30;;;;;;;;;;5060565;28;20041;-82
2021/09/16 07:00:27;;;;;;;10.23;7.00;;;;;;;;;;5066700;28;20040;-82
2021/09/16 07:02:52;;;;;;;10.23;6.33;;;;;;;;;;5066481;28;20344;-83
2021/09/16 07:05:18;;;;;;;13.27;6.30;;;;;;;;;;5062021;28;20036;-83
2021/09/16 07:07:43;;;;;;;8.73;6.10;;;;;;;;;;5055265;28;20028;-83
2021/09/16 07:10:09;;;;;;;9.30;5.97;;;;;;;;;;5056432;28;20082;-81
2021/09/16 07:12:35;;;;;;;7.88;6.03;;;;;;;;;;5056825;28;20020;-83
2021/09/16 07:15:00;;;;;;;10.27;5.90;;;;;;;;;;5060228;28;20051;-81
2021/09/16 07:17:26;;;;;;;8.33;5.93;;;;;;;;;;5073481;28;20051;-80
2021/09/16 07:19:51;;;;;;;13.87;7.23;;;;;;;;;;5070737;28;20021;-82
2021/09/16 07:22:16;;;;;;;10.93;6.70;;;;;;;;;;5070505;28;20025;-81
2021/09/16 07:24:42;;;;;;;10.30;6.13;;;;;;;;;;5069315;28;20025;-82
2021/09/16 07:27:07;;;;;;;10.30;5.50;;;;;;;;;;5058054;28;20078;-83
2021/09/16 07:29:32;;;;;;;8.80;5.77;;;;;;;;;;5055984;28;20086;-83
2021/09/16 07:31:58;;;;;;;7.93;5.27;;;;;;;;;;5055426;28;20516;-81
2021/09/16 07:34:23;;;;;;;9.17;6.13;;;;;;;;;;5057029;28;20029;-82
2021/09/16 07:36:49;;;;;;;6.90;5.17;;;;;;;;;;5056863;28;20025;-82
2021/09/16 07:39:18;;;;;;;8.20;5.50;;;;;;;;;;5061292;28;20088;-82
2021/09/16 07:41:44;;;;;;;8.65;5.68;;;;;;;;;;5060755;28;20025;-82
2021/09/16 07:44:09;;;;;;;7.65;5.55;;;;;;;;;;5059917;28;20486;-83
2021/09/16 07:46:34;;;;;;;6.87;4.93;;;;;;;;;;5061450;28;20029;-82
2021/09/16 07:49:00;;;;;;;6.93;5.23;;;;;;;;;;5062458;28;20462;-83
2021/09/16 07:51:25;;;;;;;6.10;5.17;;;;;;;;;;5062262;28;20040;-82
2021/09/16 07:53:51;;;;;;;4.10;3.10;;;;;;;;;;5059696;28;20501;-82
2021/09/16 07:56:19;;;;;;;4.35;2.85;;;;;;;;;;5060528;28;20035;-81
2021/09/16 07:58:45;;;;;;;7.00;3.75;;;;;;;;;;5060196;28;20032;-81
2021/09/16 08:01:10;;;;;;;5.10;3.50;;;;;;;;;;5060356;28;20021;-83
2021/09/16 08:03:36;;;;;;;4.60;2.57;;;;;;;;;;5059662;28;20439;-81
2021/09/16 08:06:02;;;;;;;7.20;3.00;;;;;;;;;;5059763;28;20439;-80
2021/09/16 08:08:27;;;;;;;5.90;3.70;;;;;;;;;;5059111;28;20350;-82
2021/09/16 08:10:53;;;;;;;5.87;3.40;;;;;;;;;;5059931;28;20028;-83
2021/09/16 08:13:18;;;;;;;5.13;3.27;;;;;;;;;;5060070;28;20028;-84
2021/09/16 08:15:43;;;;;;;4.43;2.90;;;;;;;;;;5058445;28;20075;-82
2021/09/16 08:18:09;;;;;;;5.83;3.03;;;;;;;;;;5058499;28;20040;-83
2021/09/16 08:20:47;;;;;;;5.23;2.90;;;;;;;;;;5059592;28;20447;-84
2021/09/16 08:23:12;;;;;;;5.28;3.13;;;;;;;;;;5059643;28;20021;-83
2021/09/16 08:25:38;;;;;;;4.37;2.37;;;;;;;;;;5059105;28;20094;-81
2021/09/16 08:28:03;;;;;;;4.50;2.97;;;;;;;;;;5058314;28;20025;-81
2021/09/16 08:30:29;;;;;;;3.60;2.30;;;;;;;;;;5059171;28;20029;-83
2021/09/16 08:32:54;;;;;;;4.57;2.57;;;;;;;;;;5059507;28;20035;-82
2021/09/16 08:35:20;;;;;;;4.67;2.57;;;;;;;;;;5058772;28;20056;-82
2021/09/16 08:37:46;;;;;;;5.93;2.77;;;;;;;;;;5060229;28;20456;-85
2021/09/16 08:40:13;;;;;;;3.42;2.72;;;;;;;;;;5058792;28;20051;-85
2021/09/16 08:42:39;;;;;;;;;;;;;;;;;;5060110;28;20209;-83
2021/09/16 08:45:07;;;;;;;6.50;3.13;;;;;;;;;;5060211;28;19974;-84
2021/09/16 08:47:36;;;;;;;4.30;2.80;;;;;;;;;;5061420;28;20035;-85
2021/09/16 08:50:02;;;;;;;4.40;2.83;;;;;;;;;;5063016;28;20024;-84
2021/09/16 08:52:28;;;;;;;4.13;2.22;;;;;;;;;;5061204;28;20036;-81
2021/09/16 08:54:55;;;;;;;7.27;2.43;;;;;;;;;;5061160;28;20025;-85
2021/09/16 08:57:20;;;;;;;4.53;2.90;;;;;;;;;;5061503;28;20455;-81
2021/09/16 08:59:46;;;;;;;3.67;2.30;;;;;;;;;;5062220;28;20100;-80
2021/09/16 09:02:12;;;;;;;3.73;2.30;;;;;;;;;;5062894;28;20446;-79
2021/09/16 09:04:38;;;;;;;4.40;1.80;;;;;;;;;;5062512;28;20046;-79
2021/09/16 09:07:05;;;;;;;3.90;2.10;;;;;;;;;;5061671;28;20518;-81
2021/09/16 09:09:31;;;;;;;3.90;2.13;;;;;;;;;;5059432;28;20021;-80
2021/09/16 09:12:03;;;;;;;3.85;2.25;;;;;;;;;;5058796;28;20055;-82
2021/09/16 09:14:54;;;;;;;4.15;2.20;;;;;;;;;;5062119;28;20167;-82
2021/09/16 09:17:30;;;;;;;5.93;2.25;;;;;;;;;;5061809;28;20370;-84
2021/09/16 09:19:58;;;;;;;4.28;2.00;;;;;;;;;;5059519;28;20025;-82
2021/09/16 09:22:29;;;;;;;4.65;2.10;;;;;;;;;;5058352;28;20087;-82
2021/09/16 09:25:08;;;;;;;4.53;2.30;;;;;;;;;;5058046;28;20017;-82
2021/09/16 09:27:37;;;;;;;3.25;2.00;;;;;;;;;;5057377;28;20052;-83
2021/09/16 09:30:08;;;;;;;3.85;1.70;;;;;;;;;;5057518;28;20105;-82
2021/09/16 09:32:44;;;;;;;4.05;1.90;;;;;;;;;;5057151;28;20036;-83
2021/09/16 09:35:35;;;;;;;3.65;2.00;;;;;;;;;;5058534;28;20060;-81
2021/09/16 09:38:20;;;;;;;4.93;2.22;;;;;;;;;;5058791;28;20155;-84
2021/09/16 09:41:04;;;;;;;4.85;1.88;;;;;;;;;;5059727;28;20044;-83
2021/09/16 09:43:35;;;;;;;4.32;2.10;;;;;;;;;;5056725;28;20500;-82
2021/09/16 09:46:02;;;;;;;4.43;1.92;;;;;;;;;;5057746;28;20040;-84
2021/09/16 09:48:29;;;;;;;4.57;2.03;;;;;;;;;;5058157;28;20036;-81
2021/09/16 09:50:55;;;;;;;4.07;2.67;;;;;;;;;;5041054;28;20033;-82
2021/09/16 09:53:21;;;;;;;3.67;2.00;;;;;;;;;;5058433;28;20021;-83
2021/09/16 09:55:47;;;;;;;4.45;2.40;;;;;;;;;;5061860;28;20029;-81
2021/09/16 09:58:12;;;;;;;4.28;2.28;;;;;;;;;;5067670;28;20450;-79
2021/09/16 10:00:38;;;;;;;4.23;2.37;;;;;;;;;;5063671;28;20102;-84
2021/09/16 10:03:04;;;;;;;4.73;2.20;;;;;;;;;;5064170;28;20112;-81
2021/09/16 10:05:37;;;;;;;6.10;2.83;;;;;;;;;;5062537;28;20025;-84
2021/09/16 10:08:08;;;;;;;4.03;2.33;;;;;;;;;;5058309;28;20060;-83
2021/09/16 10:10:38;;;;;;;4.70;3.03;;;;;;;;;;5063645;28;20466;-80
2021/09/16 10:13:04;;;;;;;4.97;2.25;;;;;;;;;;5068610;28;20454;-80
2021/09/16 10:15:30;;;;;;;5.07;2.20;;;;;;;;;;5064869;28;20096;-82
2021/09/16 10:17:55;;;;;;;4.60;2.20;;;;;;;;;;5063818;28;20466;-82
2021/09/16 10:20:23;;;;;;;4.43;1.90;;;;;;;;;;5065501;28;20049;-81
2021/09/16 10:22:54;;;;;;;2.38;1.60;;;;;;;;;;5064831;28;20033;-81
2021/09/16 10:25:24;;;;;;;3.05;1.42;;;;;;;;;;5061416;28;20473;-82
2021/09/16 10:28:02;;;;;;;2.83;1.65;;;;;;;;;;5057556;28;20033;-80
2021/09/16 10:30:32;;;;;;;3.22;1.52;;;;;;;;;;5056850;28;20024;-82
2021/09/16 10:33:27;;;;;;;4.47;1.80;;;;;;;;;;5055471;28;20025;-81
2021/09/16 10:35:58;;;;;;;3.65;1.70;;;;;;;;;;5056393;28;20055;-80
2021/09/16 10:38:38;;;;;;;3.42;1.90;;;;;;;;;;5055869;28;20021;-81
2021/09/16 10:41:22;;;;;;;3.20;1.70;;;;;;;;;;5055939;28;20055;-81
2021/09/16 10:44:09;;;;;;;5.22;1.40;;;;;;;;;;5055772;28;20046;-82
2021/09/16 10:46:43;;;;;;;4.45;1.73;;;;;;;;;;5054482;28;20051;-82
2021/09/16 10:49:24;;;;;;;4.20;1.90;;;;;;;;;;5054767;28;20043;-82
2021/09/16 10:52:03;;;;;;;3.35;1.70;;;;;;;;;;5054697;28;20043;-81
2021/09/16 10:54:45;;;;;;;3.75;2.00;;;;;;;;;;5056043;28;20036;-83
2021/09/16 10:57:13;;;;;;;4.65;2.60;;;;;;;;;;5068368;28;20020;-81
2021/09/16 10:59:48;;;;;;;8.63;2.75;;;;;;;;;;5074379;28;20037;-82
2021/09/16 11:02:20;;;;;;;3.60;1.75;;;;;;;;;;5077444;28;20029;-81
2021/09/16 11:04:54;;;;;;;2.65;1.80;;;;;;;;;;5076527;28;20107;-82
2021/09/16 11:07:31;;;;;;;2.60;1.67;;;;;;;;;;5074817;28;20052;-82
2021/09/16 11:10:17;;;;;;;4.10;1.75;;;;;;;;;;5065533;28;20020;-81
2021/09/16 11:12:55;;;;;;;2.53;1.52;;;;;;;;;;5056626;28;20020;-87
2021/09/16 11:15:26;;;;;;;4.25;1.73;;;;;;;;;;5056301;28;20078;-82
2021/09/16 11:18:01;;;;;;;2.47;1.60;;;;;;;;;;5055805;28;20036;-82
2021/09/16 11:20:27;;;;;;;1.95;1.20;;;;;;;;;;5055156;28;20040;-82
2021/09/16 11:22:52;;;;;;;5.07;1.48;;;;;;;;;;5056483;28;20033;-82
2021/09/16 11:25:18;;;;;;;2.72;1.33;;;;;;;;;;5056496;28;20031;-82
2021/09/16 11:27:43;;;;;;;1.83;1.33;;;;;;;;;;5064830;28;20056;-83
2021/09/16 11:30:19;;;;;;;2.22;1.27;;;;;;;;;;5072134;28;20025;-84
2021/09/16 11:32:45;;;;;;;6.13;5.05;;;;;;;;;;5073050;28;20027;-83
2021/09/16 11:35:14;;;;;;;3.65;2.80;;;;;;;;;;5067195;28;20048;-83
2021/09/16 11:37:45;;;;;;;2.85;1.60;;;;;;;;;;5071588;28;20028;-83
2021/09/16 11:40:17;;;;;;;1.80;1.15;;;;;;;;;;5073537;28;20025;-81
2021/09/16 11:42:45;;;;;;;1.73;1.13;;;;;;;;;;5070779;28;20036;-84
2021/09/16 11:45:18;;;;;;;2.30;1.00;;;;;;;;;;5068408;28;20072;-84
2021/09/16 11:47:53;;;;;;;2.55;1.38;;;;;;;;;;5069683;28;20017;-83
2021/09/16 11:50:24;;;;;;;2.33;1.10;;;;;;;;;;5069585;28;20021;-82
2021/09/16 11:53:10;;;;;;;5.40;1.20;;;;;;;;;;5070178;28;20020;-82
2021/09/16 11:55:41;;;;;;;2.58;1.65;;;;;;;;;;5069557;28;20039;-83
2021/09/16 11:58:17;;;;;;;2.05;1.35;;;;;;;;;;5068492;28;20021;-83
2021/09/16 12:00:49;;;;;;;;;;;;;;;;;;5064448;28;20036;-82
2021/09/16 12:03:23;;;;;;;1.40;1.00;;;;;;;;;;5064523;28;19977;-87
2021/09/16 12:06:00;;;;;;;2.08;1.25;;;;;;;;;;5064363;28;20413;-86
2021/09/16 12:08:37;;;;;;;3.00;1.70;;;;;;;;;;5064677;28;20021;-85
2021/09/16 12:11:08;;;;;;;2.08;1.30;;;;;;;;;;5064228;28;20049;-86
2021/09/16 12:13:39;;;;;;;5.03;1.30;;;;;;;;;;5063464;28;20021;-81
2021/09/16 12:16:11;;;;;;;2.65;1.38;;;;;;;;;;5061650;28;20041;-81
2021/09/16 12:18:39;;;;;;;4.03;1.55;;;;;;;;;;5062359;28;20031;-83
2021/09/16 12:21:08;;;;;;;2.45;1.65;;;;;;;;;;5061198;28;20081;-82
2021/09/16 12:23:34;;;;;;;3.85;1.20;;;;;;;;;;5062528;28;20371;-81
2021/09/16 12:26:08;;;;;;;2.25;1.40;;;;;;;;;;5066542;28;20084;-84
2021/09/16 12:28:49;;;;;;;3.50;1.30;;;;;;;;;;5063290;28;20025;-82
2021/09/16 12:31:14;;;;;;;2.65;1.00;;;;;;;;;;5058781;28;20029;-83
2021/09/16 12:33:40;;;;;;;2.22;1.40;;;;;;;;;;5064311;28;20019;-80
2021/09/16 12:36:17;;;;;;;1.60;1.00;;;;;;;;;;5058937;28;20043;-84
2021/09/16 12:38:51;;;;;;;2.50;1.55;;;;;;;;;;5057678;28;20367;-80
2021/09/16 12:41:25;;;;;;;2.75;1.40;;;;;;;;;;5059711;28;20025;-84
2021/09/16 12:44:05;;;;;;;2.50;1.30;;;;;;;;;;5064047;28;20048;-84
2021/09/16 12:46:45;;;;;;;1.77;1.35;;;;;;;;;;5063668;28;20084;-83
2021/09/16 12:49:49;;;;;;;2.97;1.80;;;;;;;;;;5065279;28;20024;-83
2021/09/16 12:52:24;;;;;;;3.30;1.60;;;;;;;;;;5046655;28;20112;-83
2021/09/16 12:54:58;;;;;;;3.42;1.60;;;;;;;;;;5064320;28;20029;-83
2021/09/16 12:57:30;;;;;;;3.30;2.10;;;;;;;;;;5064986;28;20089;-84
2021/09/16 12:59:58;;;;;;;3.22;1.70;;;;;;;;;;5066135;28;20025;-84
2021/09/16 13:02:31;;;;;;;6.70;2.05;;;;;;;;;;5065740;28;20029;-84
2021/09/16 13:05:06;;;;;;;3.47;1.73;;;;;;;;;;5067292;28;20024;-83
2021/09/16 13:07:37;;;;;;;3.50;2.10;;;;;;;;;;5064753;28;20046;-84
2021/09/16 13:10:12;;;;;;;3.75;1.90;;;;;;;;;;5066813;28;20028;-82
2021/09/16 13:12:39;;;;;;;3.15;2.03;;;;;;;;;;5067407;28;20059;-82
2021/09/16 13:15:06;;;;;;;3.67;2.10;;;;;;;;;;5066790;28;20102;-81
2021/09/16 13:17:32;;;;;;;3.95;2.00;;;;;;;;;;5066668;28;20115;-82
2021/09/16 13:19:57;;;;;;;3.63;2.00;;;;;;;;;;5067468;28;20451;-82
2021/09/16 13:22:24;;;;;;;7.90;2.38;;;;;;;;;;5064975;28;20128;-82
2021/09/16 13:24:49;;;;;;;;;;;;;;;;;;5065234;28;20474;-81
2021/09/16 13:27:16;;;;;;;5.15;1.85;;;;;;;;;;5067350;28;19909;-85
2021/09/16 13:29:41;;;;;;;4.30;1.85;;;;;;;;;;5068845;28;20025;-83
2021/09/16 13:32:08;;;;;;;3.85;2.45;;;;;;;;;;5066403;28;20453;-83
2021/09/16 13:34:33;;;;;;;;;;;;;;;;;;5065241;28;20040;-83
2021/09/16 13:36:59;;;;;;;4.93;1.95;;;;;;;;;;5066780;28;19966;-85
2021/09/16 13:39:25;;;;;;;2.83;1.90;;;;;;;;;;5067160;28;20053;-85
2021/09/16 13:42:01;;;;;;;3.92;2.10;;;;;;;;;;5068226;28;20048;-83
2021/09/16 13:44:26;;;;;;;4.82;2.97;;;;;;;;;;5066014;28;20073;-85
2021/09/16 13:46:55;;;;;;;5.47;2.50;;;;;;;;;;5063188;28;20033;-83
2021/09/16 13:49:24;;;;;;;4.00;2.55;;;;;;;;;;5064899;28;20028;-83
2021/09/16 13:51:52;;;;;;;3.70;2.35;;;;;;;;;;5063104;28;20468;-83
2021/09/16 13:54:18;;;;;;;10.40;9.30;;;;;;;;;;5064750;28;20354;-83
2021/09/16 13:56:43;;;;;;;15.80;14.23;;;;;;;;;;5062999;28;20048;-83
2021/09/16 13:59:09;;;;;;;4.00;2.30;;;;;;;;;;5062478;28;20033;-82
2021/09/16 14:01:34;;;;;;;5.23;2.37;;;;;;;;;;5063678;28;20032;-83
2021/09/16 14:04:00;;;;;;;5.73;2.73;;;;;;;;;;5060445;28;20025;-82
2021/09/16 14:06:26;;;;;;;3.70;2.47;;;;;;;;;;5061778;28;20079;-83
2021/09/16 14:08:51;;;;;;;4.95;2.95;;;;;;;;;;5057035;28;20111;-82
2021/09/16 14:11:17;;;;;;;6.27;2.63;;;;;;;;;;5060832;28;20064;-82
2021/09/16 14:13:43;;;;;;;4.80;2.17;;;;;;;;;;5066125;28;20362;-84
2021/09/16 14:16:09;;;;;;;4.07;2.50;;;;;;;;;;5064016;28;20542;-81
2021/09/16 14:18:35;;;;;;;4.93;2.85;;;;;;;;;;5065214;28;20024;-81
2021/09/16 14:21:01;;;;;;;4.07;2.60;;;;;;;;;;5066899;28;20040;-80
2021/09/16 14:23:30;;;;;;;10.13;9.10;;;;;;;;;;5067455;28;20017;-81
2021/09/16 14:25:59;;;;;;;4.63;2.75;;;;;;;;;;5070172;28;20021;-81
2021/09/16 14:28:26;;;;;;;5.88;2.58;;;;;;;;;;5070092;28;20020;-82
2021/09/16 14:31:01;;;;;;;5.35;2.90;;;;;;;;;;5071126;28;20033;-82
2021/09/16 14:33:29;;;;;;;5.47;2.45;;;;;;;;;;5068357;28;20091;-82
2021/09/16 14:35:55;;;;;;;5.38;2.58;;;;;;;;;;5070570;28;20025;-80
2021/09/16 14:38:20;;;;;;;3.67;2.40;;;;;;;;;;5067031;28;20055;-79
2021/09/16 14:40:49;;;;;;;6.45;2.72;;;;;;;;;;5064081;28;20037;-81